Time;durP1;ratioP1;P1;durP2;ratioP2;P2;SDS_P1;SDS_P2;PMS_P1;PMS_P2;Temp;Humidity;BMP_temperature;BMP_pressure;BME280_temperature;BME280_humidity;BME280_pressure;Samples;Min_cycle;Max_cycle;Signal;HPM_P1;HPM_P2
2022/10/21 00:00:14;;;;;;;9.80;6.10;;;13.60;99.90;;;;;;5114100;28;20970;-70
2022/10/21 00:02:40;;;;;;;14.47;8.07;;;13.60;99.90;;;;;;5108104;28;20466;-69
2022/10/21 00:05:08;;;;;;;14.07;8.10;;;13.50;99.90;;;;;;5113525;28;20938;-69
2022/10/21 00:07:36;;;;;;;11.97;8.30;;;13.40;99.90;;;;;;5114608;28;20514;-69
2022/10/21 00:10:04;;;;;;;15.37;8.00;;;13.50;99.90;;;;;;5114139;28;20440;-69
2022/10/21 00:12:32;;;;;;;11.13;6.60;;;13.70;99.90;;;;;;5114415;28;20469;-70
2022/10/21 00:14:59;;;;;;;12.30;7.70;;;13.60;99.90;;;;;;5113005;28;20431;-69
2022/10/21 00:17:25;;;;;;;10.00;7.00;;;13.60;99.90;;;;;;5114058;28;20455;-70
2022/10/21 00:19:52;;;;;;;10.53;6.97;;;13.70;99.90;;;;;;5110954;28;20941;-70
2022/10/21 00:22:19;;;;;;;12.90;7.60;;;13.50;99.90;;;;;;5113861;28;20448;-69
2022/10/21 00:24:47;;;;;;;10.07;6.50;;;13.30;99.90;;;;;;5114734;28;20780;-70
2022/10/21 00:27:14;;;;;;;8.03;6.63;;;13.40;99.90;;;;;;5113570;28;20487;-69
2022/10/21 00:29:41;;;;;;;9.57;6.47;;;13.50;99.90;;;;;;5114175;28;20448;-69
2022/10/21 00:32:08;;;;;;;9.80;7.00;;;13.50;99.90;;;;;;5113534;28;20444;-70
2022/10/21 00:34:35;;;;;;;10.33;6.30;;;13.50;99.90;;;;;;5113814;28;20444;-70
2022/10/21 00:37:02;;;;;;;11.10;6.70;;;13.60;99.90;;;;;;5112987;28;20495;-69
2022/10/21 00:39:28;;;;;;;11.10;6.07;;;13.60;99.90;;;;;;5113825;28;20538;-69
2022/10/21 00:41:57;;;;;;;8.43;5.63;;;13.70;99.90;;;;;;5114381;28;20448;-70
2022/10/21 00:44:26;;;;;;;10.17;6.10;;;13.60;99.90;;;;;;5113940;28;20460;-70
2022/10/21 00:46:59;;;;;;;11.00;6.90;;;13.60;99.90;;;;;;5113382;28;20484;-71
2022/10/21 00:49:34;;;;;;;14.97;7.60;;;13.70;99.90;;;;;;5113110;28;20563;-70
2022/10/21 00:52:03;;;;;;;10.80;6.33;;;13.70;99.90;;;;;;5113401;28;20443;-69
2022/10/21 00:54:31;;;;;;;13.60;7.40;;;13.80;99.90;;;;;;5113883;28;20534;-69
2022/10/21 00:57:00;;;;;;;9.67;6.50;;;13.80;99.90;;;;;;5111871;28;20930;-70
2022/10/21 00:59:29;;;;;;;9.70;6.37;;;13.70;99.90;;;;;;5113486;28;20960;-70
2022/10/21 01:01:56;;;;;;;14.10;7.30;;;13.60;99.90;;;;;;5113909;28;20444;-70
2022/10/21 01:04:23;;;;;;;16.53;7.13;;;13.70;99.90;;;;;;5113452;28;20961;-70
2022/10/21 01:06:51;;;;;;;11.27;6.77;;;13.60;99.90;;;;;;5113226;28;20498;-70
2022/10/21 01:09:20;;;;;;;14.07;7.97;;;13.50;99.90;;;;;;5112476;28;20962;-70
2022/10/21 01:11:48;;;;;;;8.47;6.03;;;13.50;99.90;;;;;;5107323;28;20892;-70
2022/10/21 01:14:47;;;;;;;12.03;6.57;;;13.50;99.90;;;;;;5112028;28;20935;-69
2022/10/21 01:17:26;;;;;;;7.50;6.30;;;13.40;99.90;;;;;;5102291;28;20875;-70
2022/10/21 01:20:18;;;;;;;10.37;7.00;;;13.30;99.90;;;;;;5100022;28;20451;-70
2022/10/21 01:23:06;;;;;;;9.37;6.13;;;13.20;99.90;;;;;;5110654;28;20439;-70
2022/10/21 01:26:04;;;;;;;11.13;6.43;;;13.20;99.90;;;;;;5110424;28;20440;-70
2022/10/21 01:28:44;;;;;;;8.60;6.23;;;13.10;99.90;;;;;;5112877;28;20483;-69
2022/10/21 01:31:17;;;;;;;7.73;5.33;;;13.10;99.90;;;;;;5112442;28;20439;-69
2022/10/21 01:33:48;;;;;;;11.70;6.80;;;13.10;99.90;;;;;;5101125;28;20799;-69
2022/10/21 01:36:27;;;;;;;12.30;6.40;;;13.10;99.90;;;;;;5112823;28;20436;-70
2022/10/21 01:39:09;;;;;;;10.60;7.13;;;13.20;99.90;;;;;;5112602;28;20447;-70
2022/10/21 01:41:40;;;;;;;10.80;6.13;;;13.30;99.90;;;;;;5112681;28;20445;-71
2022/10/21 01:44:12;;;;;;;7.37;4.93;;;13.30;99.90;;;;;;5112325;28;20478;-70
2022/10/21 01:46:45;;;;;;;9.57;6.13;;;13.30;99.90;;;;;;5112475;28;20487;-69
2022/10/21 01:49:18;;;;;;;12.37;7.23;;;13.30;99.90;;;;;;5111342;28;20481;-70
2022/10/21 01:51:45;;;;;;;14.07;6.50;;;13.50;99.90;;;;;;5112482;28;20461;-70
2022/10/21 01:54:19;;;;;;;8.50;5.90;;;13.50;99.90;;;;;;5112318;28;20467;-69
2022/10/21 01:56:46;;;;;;;16.93;6.10;;;13.50;99.90;;;;;;5111970;28;20455;-70
2022/10/21 01:59:14;;;;;;;8.00;5.40;;;13.50;99.90;;;;;;5111908;28;20450;-69
2022/10/21 02:01:43;;;;;;;9.50;6.33;;;13.50;99.90;;;;;;5111569;28;20450;-69
2022/10/21 02:04:14;;;;;;;8.10;5.83;;;13.40;99.90;;;;;;5110883;28;20448;-70
2022/10/21 02:06:41;;;;;;;8.20;5.27;;;13.30;99.90;;;;;;5111208;28;20471;-70
2022/10/21 02:09:08;;;;;;;16.60;6.30;;;13.40;99.90;;;;;;5110727;28;20527;-69
2022/10/21 02:11:37;;;;;;;7.70;5.17;;;13.40;99.90;;;;;;5111904;28;20451;-69
2022/10/21 02:14:07;;;;;;;9.73;5.67;;;13.40;99.90;;;;;;5110333;28;20455;-69
2022/10/21 02:16:38;;;;;;;11.63;5.93;;;13.30;99.90;;;;;;5111607;28;20938;-69
2022/10/21 02:19:14;;;;;;;8.10;6.00;;;13.30;99.90;;;;;;5111483;28;20448;-69
2022/10/21 02:21:41;;;;;;;7.47;5.33;;;13.20;99.90;;;;;;5111440;28;20431;-70
2022/10/21 02:24:14;;;;;;;13.33;5.80;;;13.30;99.90;;;;;;5111152;28;20448;-69
2022/10/21 02:26:41;;;;;;;8.47;5.70;;;13.30;99.90;;;;;;5111999;28;20447;-70
2022/10/21 02:29:09;;;;;;;7.57;4.93;;;13.30;99.90;;;;;;5111340;28;20450;-69
2022/10/21 02:31:50;;;;;;;8.13;6.03;;;13.40;99.90;;;;;;5111924;28;20452;-69
2022/10/21 02:34:29;;;;;;;7.70;5.73;;;13.30;99.90;;;;;;5111453;28;20856;-70
2022/10/21 02:37:03;;;;;;;13.13;5.90;;;13.40;99.90;;;;;;5111568;28;20479;-69
2022/10/21 02:39:34;;;;;;;10.13;5.60;;;13.50;99.90;;;;;;5111757;28;20435;-69
2022/10/21 02:42:04;;;;;;;10.40;5.60;;;13.70;99.90;;;;;;5110375;28;20440;-69
2022/10/21 02:44:31;;;;;;;5.47;4.50;;;13.70;99.90;;;;;;5111538;28;21024;-69
2022/10/21 02:46:58;;;;;;;7.73;4.67;;;13.50;99.90;;;;;;5110850;28;20487;-68
2022/10/21 02:49:26;;;;;;;10.30;6.57;;;13.40;99.90;;;;;;5111020;28;20481;-70
2022/10/21 02:51:53;;;;;;;7.30;4.50;;;13.40;99.90;;;;;;5111493;28;20450;-69
2022/10/21 02:54:20;;;;;;;10.17;6.00;;;13.50;99.90;;;;;;5110825;28;20455;-68
2022/10/21 02:56:47;;;;;;;7.00;4.90;;;13.50;99.90;;;;;;5109167;28;20455;-70
2022/10/21 02:59:14;;;;;;;10.57;6.10;;;13.50;99.90;;;;;;5110874;28;20440;-69
2022/10/21 03:01:41;;;;;;;7.10;5.53;;;13.70;99.90;;;;;;5111200;28;20440;-69
2022/10/21 03:04:07;;;;;;;7.10;4.67;;;13.70;99.90;;;;;;5110630;28;20959;-69
2022/10/21 03:06:36;;;;;;;7.50;5.07;;;13.60;99.90;;;;;;5111039;28;20452;-69
2022/10/21 03:09:04;;;;;;;10.37;4.83;;;13.60;99.90;;;;;;5110720;28;20514;-69
2022/10/21 03:11:30;;;;;;;10.87;6.90;;;13.60;99.90;;;;;;5111131;28;20436;-71
2022/10/21 03:13:57;;;;;;;8.53;5.70;;;13.50;99.90;;;;;;5110663;28;20458;-67
2022/10/21 03:16:24;;;;;;;5.57;4.67;;;13.50;99.90;;;;;;5110914;28;20456;-69
2022/10/21 03:18:51;;;;;;;8.70;5.10;;;13.60;99.90;;;;;;5111883;28;20451;-69
2022/10/21 03:21:18;;;;;;;7.30;5.40;;;13.60;99.90;;;;;;5114482;28;20874;-68
2022/10/21 03:23:46;;;;;;;7.43;5.50;;;13.70;99.90;;;;;;5115885;28;20452;-69
2022/10/21 03:26:12;;;;;;;8.97;4.73;;;13.60;99.90;;;;;;5114806;28;20755;-69
2022/10/21 03:28:39;;;;;;;10.60;6.23;;;13.70;99.90;;;;;;5115274;28;20482;-69
2022/10/21 03:31:06;;;;;;;11.47;5.83;;;13.70;99.90;;;;;;5114023;28;20942;-69
2022/10/21 03:33:33;;;;;;;10.47;7.23;;;13.80;99.90;;;;;;5115424;28;20455;-69
2022/10/21 03:36:00;;;;;;;10.27;5.80;;;13.80;99.90;;;;;;5114339;28;20539;-69
2022/10/21 03:38:26;;;;;;;12.00;6.80;;;13.90;99.90;;;;;;5114997;28;20443;-69
2022/10/21 03:40:55;;;;;;;12.10;6.40;;;14.00;99.90;;;;;;5114975;28;20455;-69
2022/10/21 03:43:21;;;;;;;9.10;6.43;;;14.00;99.90;;;;;;5115167;28;20443;-69
2022/10/21 03:45:48;;;;;;;10.30;6.47;;;14.20;99.90;;;;;;5116947;28;20470;-69
2022/10/21 03:48:15;;;;;;;7.60;5.97;;;14.30;99.90;;;;;;5116447;28;20475;-69
2022/10/21 03:50:42;;;;;;;7.83;5.80;;;14.30;99.90;;;;;;5117835;28;20443;-68
2022/10/21 03:53:08;;;;;;;9.13;5.30;;;14.30;99.90;;;;;;5118849;28;20447;-69
2022/10/21 03:55:35;;;;;;;10.20;7.20;;;14.30;99.90;;;;;;5120153;27;20452;-69
2022/10/21 03:58:03;;;;;;;7.50;6.00;;;14.30;99.90;;;;;;5118582;28;20446;-69
2022/10/21 04:00:30;;;;;;;6.73;5.50;;;14.30;99.90;;;;;;5121933;28;20867;-69
2022/10/21 04:02:57;;;;;;;12.33;6.37;;;14.30;99.90;;;;;;5124164;28;20452;-67
2022/10/21 04:05:24;;;;;;;17.83;5.40;;;14.30;99.90;;;;;;5127194;28;20438;-69
2022/10/21 04:07:51;;;;;;;12.00;5.90;;;14.30;99.90;;;;;;5126146;28;20475;-71
2022/10/21 04:10:17;;;;;;;10.20;5.70;;;14.30;99.90;;;;;;5114961;28;20813;-70
2022/10/21 04:12:44;;;;;;;9.30;5.77;;;14.40;99.90;;;;;;5114432;28;20895;-70
2022/10/21 04:15:13;;;;;;;7.83;5.50;;;14.40;99.90;;;;;;5114597;28;20451;-69
2022/10/21 04:17:40;;;;;;;9.40;6.17;;;14.30;99.90;;;;;;5114362;28;20458;-69
2022/10/21 04:20:08;;;;;;;13.70;7.30;;;14.30;99.90;;;;;;5113654;28;20443;-69
2022/10/21 04:22:35;;;;;;;9.17;5.80;;;14.30;99.90;;;;;;5114418;28;20447;-71
2022/10/21 04:25:02;;;;;;;7.87;5.57;;;14.30;99.90;;;;;;5113798;28;20454;-72
2022/10/21 04:27:28;;;;;;;8.27;5.33;;;14.30;99.90;;;;;;5113431;28;20978;-72
2022/10/21 04:29:55;;;;;;;9.00;5.97;;;14.20;99.90;;;;;;5113611;28;20435;-71
2022/10/21 04:32:24;;;;;;;9.50;6.07;;;14.30;99.90;;;;;;5113510;28;20440;-75
2022/10/21 04:34:50;;;;;;;7.77;5.53;;;14.30;99.90;;;;;;5106398;28;20454;-72
2022/10/21 04:37:17;;;;;;;12.60;5.77;;;14.20;99.90;;;;;;5109673;28;20459;-72
2022/10/21 04:39:44;;;;;;;9.97;6.63;;;14.20;99.90;;;;;;5112179;28;20458;-71
2022/10/21 04:42:11;;;;;;;8.70;6.33;;;14.20;99.90;;;;;;5109582;28;20551;-68
2022/10/21 04:44:38;;;;;;;9.20;5.80;;;14.20;99.90;;;;;;5111253;28;20448;-68
2022/10/21 04:47:05;;;;;;;10.07;6.30;;;14.20;99.90;;;;;;5109480;28;20496;-69
2022/10/21 04:49:33;;;;;;;11.70;9.47;;;14.20;99.90;;;;;;5110142;28;20506;-72
2022/10/21 04:52:00;;;;;;;10.87;5.97;;;14.20;99.90;;;;;;5108403;28;20444;-71
2022/10/21 04:54:27;;;;;;;7.77;5.27;;;14.30;99.90;;;;;;5109528;28;20700;-71
2022/10/21 04:56:54;;;;;;;9.23;5.73;;;14.30;99.90;;;;;;5109565;28;20447;-71
2022/10/21 04:59:20;;;;;;;10.80;5.13;;;14.40;99.90;;;;;;5110885;28;20452;-71
2022/10/21 05:01:47;;;;;;;5.70;5.10;;;14.50;99.90;;;;;;5109621;28;20450;-71
2022/10/21 05:04:14;;;;;;;6.40;4.63;;;14.40;99.90;;;;;;5105021;28;20862;-72
2022/10/21 05:06:42;;;;;;;8.60;5.30;;;14.40;99.90;;;;;;5110688;28;20450;-72
2022/10/21 05:09:09;;;;;;;6.63;5.07;;;14.40;99.90;;;;;;5112412;28;20478;-72
2022/10/21 05:11:36;;;;;;;4.93;4.17;;;14.50;99.90;;;;;;5113007;28;20444;-72
2022/10/21 05:14:03;;;;;;;7.23;5.20;;;14.50;99.90;;;;;;5112503;28;20448;-72
2022/10/21 05:16:30;;;;;;;5.47;4.00;;;14.50;99.90;;;;;;5111909;28;20452;-72
2022/10/21 05:18:57;;;;;;;9.97;5.17;;;14.50;99.90;;;;;;5113078;28;20540;-68
2022/10/21 05:21:24;;;;;;;7.43;6.33;;;14.50;99.90;;;;;;5112503;28;20462;-72
2022/10/21 05:23:52;;;;;;;7.33;4.60;;;14.50;99.90;;;;;;5112478;28;20451;-72
2022/10/21 05:26:19;;;;;;;15.07;11.43;;;14.50;99.90;;;;;;5111805;28;20471;-74
2022/10/21 05:28:46;;;;;;;6.50;5.03;;;14.50;99.90;;;;;;5112702;28;20822;-73
2022/10/21 05:31:13;;;;;;;9.40;4.60;;;14.60;99.90;;;;;;5105778;28;20470;-73
2022/10/21 05:33:39;;;;;;;7.13;3.60;;;14.60;99.90;;;;;;5111488;28;20443;-73
2022/10/21 05:36:07;;;;;;;6.37;4.10;;;14.50;99.90;;;;;;5111961;28;20893;-75
2022/10/21 05:38:35;;;;;;;9.07;4.37;;;14.60;99.90;;;;;;5112566;28;20529;-74
2022/10/21 05:41:03;;;;;;;6.73;3.90;;;14.60;99.90;;;;;;5111534;28;20935;-74
2022/10/21 05:43:30;;;;;;;10.87;4.63;;;14.60;99.90;;;;;;5112084;28;20448;-70
2022/10/21 05:45:57;;;;;;;5.33;2.73;;;14.70;99.90;;;;;;5112039;28;20475;-68
2022/10/21 05:48:24;;;;;;;3.97;2.83;;;14.80;99.90;;;;;;5112499;28;20518;-73
2022/10/21 05:50:53;;;;;;;5.80;4.00;;;14.80;99.90;;;;;;5111900;28;20462;-73
2022/10/21 05:53:20;;;;;;;4.77;4.30;;;14.90;99.90;;;;;;5111857;28;20451;-73
2022/10/21 05:55:54;;;;;;;3.63;2.33;;;15.00;99.90;;;;;;5112097;28;20458;-73
2022/10/21 05:58:23;;;;;;;3.70;2.50;;;15.20;99.90;;;;;;5111198;28;20970;-73
2022/10/21 06:00:50;;;;;;;4.23;2.60;;;15.30;99.90;;;;;;5112146;28;20452;-72
2022/10/21 06:03:17;;;;;;;5.57;2.70;;;15.20;99.90;;;;;;5111036;28;21102;-72
2022/10/21 06:05:44;;;;;;;4.07;2.73;;;15.20;99.90;;;;;;5107883;28;20459;-72
2022/10/21 06:08:10;;;;;;;4.60;3.07;;;15.20;99.90;;;;;;5110896;28;20483;-71
2022/10/21 06:10:37;;;;;;;5.47;2.83;;;15.20;99.90;;;;;;5111934;28;20450;-72
2022/10/21 06:13:04;;;;;;;7.20;3.20;;;15.20;99.90;;;;;;5108999;28;20653;-72
2022/10/21 06:15:32;;;;;;;4.40;2.17;;;15.30;99.90;;;;;;5102736;28;20455;-71
2022/10/21 06:17:59;;;;;;;7.70;2.30;;;15.40;99.90;;;;;;5111244;28;20471;-71
2022/10/21 06:20:26;;;;;;;6.60;2.47;;;15.40;99.90;;;;;;5111923;28;20448;-73
2022/10/21 06:22:53;;;;;;;8.03;2.53;;;15.40;99.90;;;;;;5110393;28;20467;-71
2022/10/21 06:25:20;;;;;;;4.50;2.47;;;15.50;99.90;;;;;;5110339;28;20821;-72
2022/10/21 06:27:47;;;;;;;5.60;2.23;;;15.50;99.90;;;;;;5110574;28;20858;-75
2022/10/21 06:30:14;;;;;;;5.73;3.50;;;15.50;99.90;;;;;;5111013;28;20462;-76
2022/10/21 06:32:42;;;;;;;5.37;3.10;;;15.40;99.90;;;;;;5111114;28;20454;-75
2022/10/21 06:35:09;;;;;;;7.27;3.30;;;15.40;99.90;;;;;;5103860;28;20815;-75
2022/10/21 06:37:36;;;;;;;12.23;3.23;;;15.40;99.90;;;;;;5111225;28;20450;-75
2022/10/21 06:40:03;;;;;;;4.33;2.50;;;15.30;99.90;;;;;;5109724;28;20451;-74
2022/10/21 06:42:30;;;;;;;8.03;4.60;;;15.40;99.90;;;;;;5111401;28;20444;-74
2022/10/21 06:44:57;;;;;;;10.00;2.57;;;15.30;99.90;;;;;;5111418;28;20444;-70
2022/10/21 06:47:24;;;;;;;8.00;2.97;;;15.40;99.90;;;;;;5103330;28;20468;-75
2022/10/21 06:49:52;;;;;;;5.40;2.63;;;15.30;99.90;;;;;;5110916;28;20549;-74
2022/10/21 06:52:19;;;;;;;8.93;3.00;;;15.20;99.90;;;;;;5110460;28;20444;-74
2022/10/21 06:54:46;;;;;;;9.80;4.23;;;15.30;99.90;;;;;;5110127;28;20456;-73
2022/10/21 06:57:13;;;;;;;6.53;4.23;;;15.20;99.90;;;;;;5098234;28;20952;-72
2022/10/21 06:59:40;;;;;;;4.00;2.50;;;15.10;99.90;;;;;;5109611;28;20476;-72
2022/10/21 07:02:07;;;;;;;5.70;3.00;;;15.10;99.90;;;;;;5109994;28;20448;-73
2022/10/21 07:04:34;;;;;;;7.93;3.20;;;15.10;99.90;;;;;;5106319;28;20991;-73
2022/10/21 07:07:02;;;;;;;6.30;3.43;;;15.10;99.90;;;;;;5109787;28;20447;-73
2022/10/21 07:09:29;;;;;;;5.87;3.00;;;15.10;99.90;;;;;;5106086;28;20558;-72
2022/10/21 07:11:56;;;;;;;6.30;2.90;;;15.20;99.90;;;;;;5111237;28;20879;-72
2022/10/21 07:14:24;;;;;;;4.53;2.20;;;15.20;99.90;;;;;;5111478;28;20447;-73
2022/10/21 07:16:52;;;;;;;5.20;4.27;;;15.20;99.90;;;;;;5111440;28;20467;-73
2022/10/21 07:19:19;;;;;;;6.50;3.80;;;15.20;99.90;;;;;;5110772;28;20463;-73
2022/10/21 07:21:46;;;;;;;6.83;2.77;;;15.30;99.90;;;;;;5106874;28;20479;-73
2022/10/21 07:24:14;;;;;;;5.40;3.00;;;15.30;99.90;;;;;;5110513;28;20505;-73
2022/10/21 07:26:41;;;;;;;6.87;3.30;;;15.30;99.90;;;;;;5110940;28;20455;-73
2022/10/21 07:29:08;;;;;;;8.03;3.30;;;15.30;99.90;;;;;;5109901;28;20471;-72
2022/10/21 07:31:37;;;;;;;4.37;3.37;;;15.30;99.90;;;;;;5111396;28;20863;-72
2022/10/21 07:34:05;;;;;;;10.23;3.00;;;15.40;99.90;;;;;;5109810;28;20444;-73
2022/10/21 07:36:34;;;;;;;5.40;2.20;;;15.50;99.90;;;;;;5110676;28;20451;-73
2022/10/21 07:39:04;;;;;;;3.63;2.70;;;15.60;99.90;;;;;;5110529;28;20493;-71
2022/10/21 07:41:34;;;;;;;10.07;6.00;;;15.50;99.90;;;;;;5110919;28;20440;-74
2022/10/21 07:44:02;;;;;;;5.13;2.87;;;15.50;99.90;;;;;;5109681;28;20880;-71
2022/10/21 07:46:28;;;;;;;7.33;3.03;;;15.40;99.90;;;;;;5110553;28;20471;-71
2022/10/21 07:48:55;;;;;;;5.93;3.20;;;15.40;99.90;;;;;;5110513;28;21004;-71
2022/10/21 07:51:24;;;;;;;11.30;3.50;;;15.40;99.90;;;;;;5110428;28;21023;-70
2022/10/21 07:53:53;;;;;;;9.80;3.73;;;15.40;99.90;;;;;;5110277;28;20452;-70
2022/10/21 07:56:23;;;;;;;5.87;2.90;;;15.40;99.90;;;;;;5109921;28;20464;-71
2022/10/21 07:58:51;;;;;;;4.70;2.60;;;15.40;99.90;;;;;;5110448;28;20466;-70
2022/10/21 08:01:19;;;;;;;6.90;2.40;;;15.50;99.90;;;;;;5105905;28;20449;-71
2022/10/21 08:03:46;;;;;;;7.00;2.60;;;15.50;99.90;;;;;;5110963;28;20440;-71
2022/10/21 08:06:14;;;;;;;3.27;2.40;;;15.50;99.90;;;;;;5102320;28;20440;-69
2022/10/21 08:08:41;;;;;;;4.60;2.80;;;15.60;99.90;;;;;;5114573;28;21057;-70
2022/10/21 08:11:09;;;;;;;6.77;3.40;;;15.60;99.90;;;;;;5111098;28;20447;-70
2022/10/21 08:13:36;;;;;;;6.93;3.73;;;15.70;99.90;;;;;;5113625;28;20989;-70
2022/10/21 08:16:05;;;;;;;9.00;3.40;;;15.70;99.90;;;;;;5113334;28;20949;-70
2022/10/21 08:18:32;;;;;;;5.00;2.67;;;15.70;99.90;;;;;;5113410;28;21083;-69
2022/10/21 08:20:59;;;;;;;8.40;2.63;;;15.70;99.90;;;;;;5112709;28;20522;-70
2022/10/21 08:23:26;;;;;;;4.60;3.03;;;15.70;99.90;;;;;;5113347;28;20452;-69
2022/10/21 08:25:54;;;;;;;5.90;2.23;;;15.70;99.90;;;;;;5112306;28;20784;-69
2022/10/21 08:28:23;;;;;;;4.47;2.33;;;15.70;99.90;;;;;;5113434;28;20444;-70
2022/10/21 08:30:50;;;;;;;4.77;3.27;;;15.70;99.90;;;;;;5113456;28;20953;-70
2022/10/21 08:33:19;;;;;;;6.40;3.50;;;15.70;99.90;;;;;;5113030;28;20855;-70
2022/10/21 08:35:46;;;;;;;8.70;2.90;;;15.70;99.90;;;;;;5111708;28;20446;-70
2022/10/21 08:38:13;;;;;;;4.63;2.90;;;15.70;99.90;;;;;;5112959;28;20798;-69
2022/10/21 08:40:43;;;;;;;6.93;3.90;;;15.70;99.90;;;;;;5113726;28;20446;-70
2022/10/21 08:43:17;;;;;;;9.80;2.60;;;15.70;99.90;;;;;;5112918;28;20946;-70
2022/10/21 08:45:48;;;;;;;5.50;3.00;;;15.70;99.90;;;;;;5113188;28;20431;-69
2022/10/21 08:48:20;;;;;;;5.43;3.27;;;15.60;99.90;;;;;;5113028;28;20935;-70
2022/10/21 08:50:49;;;;;;;5.33;3.10;;;15.70;99.90;;;;;;5103042;28;20805;-70
2022/10/21 08:53:21;;;;;;;8.40;3.37;;;15.70;99.90;;;;;;5111993;28;20546;-70
2022/10/21 08:55:48;;;;;;;4.93;3.07;;;15.60;99.90;;;;;;5111627;28;20455;-69
2022/10/21 08:58:18;;;;;;;5.00;3.07;;;15.60;99.90;;;;;;5108924;28;20463;-70
2022/10/21 09:00:48;;;;;;;9.77;4.30;;;15.60;99.90;;;;;;5113475;28;20451;-69
2022/10/21 09:03:31;;;;;;;5.37;2.97;;;15.70;99.90;;;;;;5112626;28;20447;-70
2022/10/21 09:06:18;;;;;;;6.27;3.30;;;15.60;99.90;;;;;;5112283;28;20448;-69
2022/10/21 09:08:55;;;;;;;5.60;3.13;;;15.70;99.90;;;;;;5110434;28;20455;-70
2022/10/21 09:11:35;;;;;;;7.50;3.27;;;15.70;99.90;;;;;;5112943;28;20793;-70
2022/10/21 09:14:21;;;;;;;5.13;3.63;;;15.70;99.90;;;;;;5104895;28;20790;-70
2022/10/21 09:16:55;;;;;;;4.57;2.70;;;15.60;99.90;;;;;;5105765;28;20981;-69
2022/10/21 09:19:32;;;;;;;5.40;3.00;;;15.80;99.90;;;;;;5109486;28;20472;-69
2022/10/21 09:22:14;;;;;;;6.80;3.00;;;15.80;99.90;;;;;;5112736;28;20473;-70
2022/10/21 09:24:49;;;;;;;6.33;4.00;;;15.80;99.90;;;;;;5113442;28;20444;-69
2022/10/21 09:27:17;;;;;;;8.90;5.10;;;16.00;99.90;;;;;;5111548;28;20444;-70
2022/10/21 09:29:45;;;;;;;5.23;2.60;;;16.10;99.90;;;;;;5113380;28;20845;-70
2022/10/21 09:32:16;;;;;;;8.37;3.33;;;16.10;99.90;;;;;;5111637;28;20440;-73
2022/10/21 09:34:54;;;;;;;5.73;3.30;;;16.10;99.90;;;;;;5113128;28;20868;-70
2022/10/21 09:37:25;;;;;;;4.10;2.53;;;16.20;99.90;;;;;;5111634;28;20965;-71
2022/10/21 09:39:59;;;;;;;4.93;2.13;;;16.30;99.90;;;;;;5113132;28;20456;-71
2022/10/21 09:42:26;;;;;;;7.93;2.70;;;16.30;99.90;;;;;;5112861;28;20785;-71
2022/10/21 09:44:53;;;;;;;4.37;2.27;;;16.40;99.90;;;;;;5112441;28;20448;-67
2022/10/21 09:47:23;;;;;;;3.90;2.27;;;16.40;99.90;;;;;;5111974;28;20547;-69
2022/10/21 09:49:55;;;;;;;3.60;1.67;;;16.30;99.90;;;;;;5112830;28;20484;-67
2022/10/21 09:52:24;;;;;;;3.20;1.87;;;16.50;99.90;;;;;;5110565;28;20446;-67
2022/10/21 09:54:51;;;;;;;8.83;2.53;;;16.50;99.90;;;;;;5113120;28;20456;-68
2022/10/21 09:57:23;;;;;;;10.13;2.40;;;16.50;99.90;;;;;;5111872;28;20817;-68
2022/10/21 09:59:54;;;;;;;5.27;1.90;;;16.50;99.90;;;;;;5111906;28;20439;-68
2022/10/21 10:02:29;;;;;;;2.37;1.43;;;16.60;99.90;;;;;;5111025;28;20444;-67
2022/10/21 10:04:58;;;;;;;2.60;1.80;;;16.70;99.90;;;;;;5112375;28;20456;-68
2022/10/21 10:07:33;;;;;;;1.93;1.10;;;16.70;99.90;;;;;;5112567;28;20486;-69
2022/10/21 10:10:00;;;;;;;3.63;1.50;;;16.90;99.90;;;;;;5111842;28;20467;-71
2022/10/21 10:12:28;;;;;;;4.20;1.50;;;17.00;99.90;;;;;;5112220;28;20451;-69
2022/10/21 10:14:56;;;;;;;1.93;1.10;;;17.00;99.90;;;;;;5112175;28;20452;-71
2022/10/21 10:17:29;;;;;;;2.50;1.60;;;16.90;99.90;;;;;;5111976;28;20816;-70
2022/10/21 10:20:24;;;;;;;1.97;1.13;;;16.90;99.90;;;;;;5096595;28;20459;-70
2022/10/21 10:23:09;;;;;;;2.40;1.30;;;16.80;99.90;;;;;;5063172;28;20456;-69
2022/10/21 10:25:38;;;;;;;3.90;1.23;;;16.90;99.90;;;;;;5111395;28;20450;-72
2022/10/21 10:28:18;;;;;;;3.30;1.27;;;17.00;99.90;;;;;;5111186;28;20452;-69
2022/10/21 10:30:48;;;;;;;2.43;1.50;;;17.00;99.90;;;;;;5110502;28;20483;-69
2022/10/21 10:33:18;;;;;;;2.97;2.00;;;17.00;99.90;;;;;;5106367;28;20848;-68
2022/10/21 10:35:50;;;;;;;3.60;1.77;;;17.00;99.90;;;;;;5109163;28;20452;-69
2022/10/21 10:38:24;;;;;;;2.80;1.37;;;17.10;99.90;;;;;;5109702;28;20795;-69
2022/10/21 10:40:51;;;;;;;4.30;1.20;;;17.00;99.90;;;;;;5107729;28;20451;-69
2022/10/21 10:43:27;;;;;;;3.83;1.33;;;17.00;99.90;;;;;;5108747;28;20444;-71
2022/10/21 10:45:57;;;;;;;2.70;1.70;;;17.00;99.90;;;;;;5108346;28;20456;-69
2022/10/21 10:48:27;;;;;;;2.47;1.20;;;17.10;99.90;;;;;;5106598;28;20476;-69
2022/10/21 10:50:57;;;;;;;2.63;1.57;;;17.10;99.90;;;;;;5108129;28;20809;-71
2022/10/21 10:53:31;;;;;;;2.13;1.50;;;17.10;99.90;;;;;;5105239;28;20476;-70
2022/10/21 10:56:07;;;;;;;2.80;1.47;;;17.10;99.90;;;;;;5110553;28;20440;-67
2022/10/21 10:58:38;;;;;;;4.70;1.90;;;17.10;99.90;;;;;;5110077;28;20504;-69
2022/10/21 11:01:11;;;;;;;1.73;1.47;;;17.20;99.90;;;;;;5109580;28;20436;-69
2022/10/21 11:03:43;;;;;;;3.80;1.57;;;17.30;99.90;;;;;;5108692;28;20855;-70
2022/10/21 11:06:17;;;;;;;4.20;1.67;;;17.40;99.90;;;;;;5107809;28;20443;-71
2022/10/21 11:08:49;;;;;;;3.40;1.40;;;17.40;99.90;;;;;;5110601;28;20454;-69
2022/10/21 11:11:23;;;;;;;3.33;1.23;;;17.40;99.90;;;;;;5110293;28;20479;-70
2022/10/21 11:13:51;;;;;;;2.40;1.20;;;17.50;99.90;;;;;;5110699;28;20454;-69
2022/10/21 11:16:33;;;;;;;4.73;1.50;;;17.50;99.90;;;;;;5109357;28;20487;-71
2022/10/21 11:19:08;;;;;;;7.93;1.97;;;17.80;99.90;;;;;;5105796;28;20451;-70
2022/10/21 11:21:45;;;;;;;3.43;1.90;;;17.80;99.90;;;;;;5110114;28;20920;-70
2022/10/21 11:24:34;;;;;;;4.63;1.43;;;18.20;99.90;;;;;;5106220;28;20792;-70
2022/10/21 11:27:07;;;;;;;2.07;1.23;;;18.10;99.90;;;;;;5109415;28;20773;-70
2022/10/21 11:29:43;;;;;;;3.33;1.67;;;18.30;99.90;;;;;;5110500;28;20485;-69
2022/10/21 11:32:24;;;;;;;4.00;1.43;;;18.00;99.90;;;;;;5105874;28;20447;-69
2022/10/21 11:34:59;;;;;;;2.50;1.40;;;18.10;99.90;;;;;;5105974;28;20436;-69
2022/10/21 11:37:44;;;;;;;2.43;1.50;;;18.20;99.90;;;;;;5108759;28;20844;-70
2022/10/21 11:40:24;;;;;;;2.20;1.30;;;18.20;99.90;;;;;;5105879;28;20447;-71
2022/10/21 11:42:52;;;;;;;1.33;1.00;;;18.20;99.90;;;;;;5114144;28;20450;-69
2022/10/21 11:45:30;;;;;;;2.40;1.00;;;18.30;99.90;;;;;;5113851;28;20443;-70
2022/10/21 11:48:03;;;;;;;1.50;0.90;;;18.40;68.60;;;;;;5112866;28;20443;-68
2022/10/21 11:50:39;;;;;;;1.40;0.90;;;18.50;16.30;;;;;;5071987;28;20943;-71
2022/10/21 11:53:22;;;;;;;1.57;1.23;;;18.40;1.00;;;;;;5072791;28;20460;-73
2022/10/21 11:55:59;;;;;;;1.30;0.80;;;18.50;1.00;;;;;;5072684;28;20437;-80
2022/10/21 11:58:35;;;;;;;2.23;0.77;;;18.70;1.00;;;;;;5072934;28;20437;-70
2022/10/21 12:01:14;;;;;;;1.93;1.10;;;18.70;1.00;;;;;;5072613;28;20446;-71
2022/10/21 12:04:03;;;;;;;1.70;0.90;;;18.60;1.00;;;;;;5070194;28;20447;-71
2022/10/21 12:06:37;;;;;;;2.50;0.87;;;18.50;1.00;;;;;;5072890;28;20456;-69
2022/10/21 12:09:11;;;;;;;1.37;0.80;;;18.30;1.00;;;;;;5071501;28;20929;-70
2022/10/21 12:11:43;;;;;;;1.00;0.77;;;18.40;1.00;;;;;;5073437;28;20476;-70
2022/10/21 12:14:24;;;;;;;2.80;0.80;;;18.30;1.00;;;;;;5072206;28;20437;-69
2022/10/21 12:16:53;;;;;;;1.73;0.90;;;18.30;1.00;;;;;;5071474;28;20514;-70
2022/10/21 12:19:23;;;;;;;1.10;0.63;;;18.40;1.00;;;;;;5071103;28;20446;-70
2022/10/21 12:21:50;;;;;;;1.27;0.70;;;18.30;1.00;;;;;;5073008;28;20543;-70
2022/10/21 12:24:35;;;;;;;0.90;0.80;;;18.30;1.00;;;;;;5072045;28;21196;-69
2022/10/21 12:27:09;;;;;;;1.30;0.73;;;18.20;1.00;;;;;;5072502;28;20784;-70
2022/10/21 12:29:56;;;;;;;1.43;0.77;;;18.10;1.00;;;;;;5071933;28;20441;-69
2022/10/21 12:32:29;;;;;;;1.40;0.90;;;18.20;1.00;;;;;;5068861;28;20768;-70
2022/10/21 12:34:57;;;;;;;0.90;0.60;;;18.00;1.00;;;;;;5071438;28;20461;-71
2022/10/21 12:38:01;;;;;;;3.10;0.90;;;18.00;1.00;;;;;;5072746;28;20552;-71
2022/10/21 12:40:39;;;;;;;1.43;0.80;;;18.00;1.00;;;;;;5070380;28;20461;-70
2022/10/21 12:43:15;;;;;;;3.43;0.70;;;17.90;1.00;;;;;;5070825;28;20440;-71
2022/10/21 12:45:43;;;;;;;1.50;0.70;;;17.80;1.00;;;;;;5071310;28;20511;-70
2022/10/21 12:48:31;;;;;;;1.00;0.60;;;17.80;19.30;;;;;;5072650;28;20527;-71
2022/10/21 12:51:01;;;;;;;1.13;0.70;;;17.70;1.00;;;;;;5110803;28;20471;-71
2022/10/21 12:53:36;;;;;;;0.80;0.53;;;17.80;1.00;;;;;;5099212;28;20849;-70
2022/10/21 12:56:06;;;;;;;1.43;0.87;;;17.70;1.00;;;;;;5112388;28;20466;-70
2022/10/21 12:58:38;;;;;;;1.13;0.63;;;17.70;1.00;;;;;;5112161;28;20444;-72
2022/10/21 13:01:06;;;;;;;3.13;2.30;;;17.70;1.00;;;;;;5112546;28;20455;-70